Time;durP1;ratioP1;P1;durP2;ratioP2;P2;SDS_P1;SDS_P2;PMS_P1;PMS_P2;Temp;Humidity;BMP_temperature;BMP_pressure;BME280_temperature;BME280_humidity;BME280_pressure;Samples;Min_cycle;Max_cycle;Signal;HPM_P1;HPM_P2
2022/12/28 00:01:19;;;;;;;7.20;1.52;;;3.80;99.90;;;;;;6160674;23;20006;-71
2022/12/28 00:03:47;;;;;;;4.05;1.27;;;3.70;99.90;;;;;;6159328;23;20013;-71
2022/12/28 00:06:15;;;;;;;5.80;1.13;;;3.70;99.90;;;;;;6159564;23;20009;-71
2022/12/28 00:08:43;;;;;;;4.50;1.15;;;3.70;99.90;;;;;;6160646;23;20447;-71
2022/12/28 00:11:16;;;;;;;5.65;1.58;;;3.70;99.90;;;;;;6161044;23;20005;-71
2022/12/28 00:13:44;;;;;;;3.75;1.52;;;3.70;99.90;;;;;;6160603;23;20002;-71
2022/12/28 00:16:24;;;;;;;8.05;1.50;;;3.60;99.90;;;;;;6159179;23;20040;-71
2022/12/28 00:18:51;;;;;;;7.20;2.78;;;3.60;99.90;;;;;;6159166;23;20006;-71
2022/12/28 00:21:18;;;;;;;4.95;1.45;;;3.60;99.90;;;;;;6160569;23;20072;-71
2022/12/28 00:23:53;;;;;;;8.00;1.42;;;3.50;99.90;;;;;;6160310;23;20008;-71
2022/12/28 00:26:21;;;;;;;7.63;1.70;;;3.60;99.90;;;;;;6162173;23;20337;-71
2022/12/28 00:28:49;;;;;;;5.93;1.23;;;3.50;99.90;;;;;;6160473;23;20002;-71
2022/12/28 00:31:16;;;;;;;5.70;1.38;;;3.50;99.90;;;;;;6160136;23;20029;-71
2022/12/28 00:33:44;;;;;;;5.35;1.63;;;3.50;99.90;;;;;;6161054;23;20008;-71
2022/12/28 00:36:13;;;;;;;4.38;1.30;;;3.50;99.90;;;;;;6161044;23;20052;-71
2022/12/28 00:38:41;;;;;;;5.75;1.52;;;3.50;99.90;;;;;;6160385;23;20009;-71
2022/12/28 00:41:08;;;;;;;4.75;1.75;;;3.50;99.90;;;;;;6160613;23;20052;-71
2022/12/28 00:43:35;;;;;;;5.95;1.73;;;3.50;99.90;;;;;;6160217;23;20306;-71
2022/12/28 00:46:03;;;;;;;8.55;1.45;;;3.50;99.90;;;;;;6160999;23;20048;-71
2022/12/28 00:48:31;;;;;;;9.20;1.73;;;3.50;99.90;;;;;;6160211;23;20005;-71
2022/12/28 00:51:13;;;;;;;8.68;1.80;;;3.40;99.90;;;;;;6161105;23;20425;-71
2022/12/28 00:53:40;;;;;;;4.53;1.63;;;3.50;99.90;;;;;;6160361;23;20005;-71
2022/12/28 00:56:10;;;;;;;4.78;2.85;;;3.50;99.90;;;;;;6161210;23;20259;-71
2022/12/28 00:58:38;;;;;;;7.35;1.60;;;3.50;99.90;;;;;;6160169;23;20006;-71
2022/12/28 01:01:11;;;;;;;6.50;1.42;;;3.50;99.90;;;;;;6159274;23;20072;-71
2022/12/28 01:03:38;;;;;;;7.78;2.00;;;3.50;99.90;;;;;;6160146;23;20029;-71
2022/12/28 01:06:07;;;;;;;4.07;2.13;;;3.50;99.90;;;;;;6158878;23;20056;-71
2022/12/28 01:08:36;;;;;;;5.30;1.35;;;3.50;99.90;;;;;;6158837;23;20058;-71
2022/12/28 01:11:19;;;;;;;15.13;2.83;;;3.50;99.90;;;;;;6159008;23;20398;-71
2022/12/28 01:13:47;;;;;;;7.60;2.58;;;3.50;99.90;;;;;;6160453;23;20248;-71
2022/12/28 01:16:21;;;;;;;9.02;2.10;;;3.50;99.90;;;;;;6159963;23;20028;-71
2022/12/28 01:18:53;;;;;;;12.82;2.50;;;3.50;99.90;;;;;;6160002;23;20002;-71
2022/12/28 01:21:25;;;;;;;3.63;1.70;;;3.50;99.90;;;;;;6158921;23;20005;-71
2022/12/28 01:23:58;;;;;;;6.68;1.85;;;3.50;99.90;;;;;;6158473;23;20017;-72
2022/12/28 01:26:26;;;;;;;6.78;2.20;;;3.60;99.90;;;;;;6158759;23;20056;-72
2022/12/28 01:28:54;;;;;;;8.80;2.08;;;3.60;99.90;;;;;;6160003;23;20001;-72
2022/12/28 01:31:22;;;;;;;17.65;3.38;;;3.60;99.90;;;;;;6158648;23;20037;-72
2022/12/28 01:33:49;;;;;;;5.57;2.42;;;3.60;99.90;;;;;;6158603;23;20009;-72
2022/12/28 01:36:22;;;;;;;9.00;2.53;;;3.60;99.90;;;;;;6160561;23;20073;-71
2022/12/28 01:38:55;;;;;;;8.48;3.30;;;3.60;99.90;;;;;;6158645;23;19997;-71
2022/12/28 01:41:24;;;;;;;8.52;2.17;;;3.60;99.90;;;;;;6159949;23;20009;-72
2022/12/28 01:43:54;;;;;;;7.28;2.20;;;3.60;99.90;;;;;;6160159;23;20002;-72
2022/12/28 01:46:35;;;;;;;11.23;2.55;;;3.60;99.90;;;;;;6160793;23;20001;-72
2022/12/28 01:49:07;;;;;;;8.90;2.17;;;3.60;99.90;;;;;;6160498;23;20025;-72
2022/12/28 01:51:46;;;;;;;8.80;2.67;;;3.60;99.90;;;;;;6160643;23;20072;-71
2022/12/28 01:54:14;;;;;;;8.43;2.72;;;3.60;99.90;;;;;;6159917;23;20005;-72
2022/12/28 01:56:43;;;;;;;6.32;2.75;;;3.60;99.90;;;;;;6161969;23;20009;-71
2022/12/28 01:59:11;;;;;;;6.13;1.98;;;3.60;99.90;;;;;;6160580;23;20009;-72
2022/12/28 02:01:38;;;;;;;8.32;3.42;;;3.60;99.90;;;;;;6160592;23;20252;-72
2022/12/28 02:04:06;;;;;;;7.18;2.38;;;3.60;99.90;;;;;;6161703;23;20005;-72
2022/12/28 02:06:33;;;;;;;17.67;4.57;;;3.70;99.90;;;;;;6162715;23;20062;-72
2022/12/28 02:09:11;;;;;;;18.00;3.47;;;3.70;99.90;;;;;;6162468;23;20002;-72
2022/12/28 02:11:38;;;;;;;23.52;7.53;;;3.70;99.90;;;;;;6162135;23;20081;-72
2022/12/28 02:14:06;;;;;;;17.80;6.68;;;3.70;99.90;;;;;;6160454;23;20033;-72
2022/12/28 02:16:34;;;;;;;21.30;8.90;;;3.80;99.90;;;;;;6161725;23;20033;-71
2022/12/28 02:19:02;;;;;;;18.55;5.85;;;3.90;99.90;;;;;;6161645;23;19998;-72
2022/12/28 02:21:50;;;;;;;18.33;6.00;;;3.90;99.90;;;;;;6162106;23;20004;-71
2022/12/28 02:24:21;;;;;;;16.77;4.72;;;4.00;99.90;;;;;;6161597;23;20291;-72
2022/12/28 02:27:26;;;;;;;6.45;2.67;;;4.00;99.90;;;;;;6161556;23;20044;-72
2022/12/28 02:30:07;;;;;;;4.70;2.05;;;4.10;99.90;;;;;;6162264;23;20001;-71
2022/12/28 02:32:44;;;;;;;8.95;1.80;;;4.10;99.90;;;;;;6161599;23;20036;-72
2022/12/28 02:35:39;;;;;;;12.10;2.55;;;4.20;99.90;;;;;;6161832;23;20080;-71
2022/12/28 02:38:28;;;;;;;10.80;1.90;;;4.20;99.90;;;;;;6161816;23;20294;-71
2022/12/28 02:41:00;;;;;;;8.05;2.60;;;4.20;99.90;;;;;;6161538;23;20005;-71
2022/12/28 02:43:28;;;;;;;14.15;3.72;;;4.20;99.90;;;;;;6162199;23;19998;-71
2022/12/28 02:51:49;;;;;;;9.52;2.88;;;4.10;99.90;;;;;;6161774;23;20047;-71
2022/12/28 02:57:55;;;;;;;11.10;2.67;;;3.90;99.90;;;;;;6161486;23;20064;-70
2022/12/28 03:00:29;;;;;;;7.03;2.60;;;3.90;99.90;;;;;;6160189;23;20126;-71
2022/12/28 03:03:00;;;;;;;8.95;2.55;;;3.90;99.90;;;;;;6161286;23;20017;-71
2022/12/28 03:08:42;;;;;;;6.95;2.03;;;3.90;99.90;;;;;;6161583;23;20393;-71
2022/12/28 03:11:14;;;;;;;2.60;1.20;;;3.90;99.90;;;;;;6162104;23;20001;-71
2022/12/28 03:13:55;;;;;;;10.98;3.33;;;3.90;99.90;;;;;;6161224;23;19998;-71
2022/12/28 03:31:06;;;;;;;6.22;1.58;;;4.00;99.90;;;;;;6161552;23;20040;-71
2022/12/28 03:33:41;;;;;;;5.90;1.67;;;4.00;99.90;;;;;;6160979;23;19997;-71
2022/12/28 03:36:23;;;;;;;8.93;2.35;;;4.10;99.90;;;;;;6160917;23;20245;-71
2022/12/28 03:38:54;;;;;;;6.40;1.95;;;4.10;99.90;;;;;;6160959;23;20056;-71
2022/12/28 03:41:38;;;;;;;5.25;2.05;;;4.10;99.90;;;;;;6161623;23;20036;-71
2022/12/28 03:44:27;;;;;;;8.68;2.45;;;4.10;99.90;;;;;;6159777;23;20334;-71
2022/12/28 03:47:09;;;;;;;8.27;2.92;;;4.10;99.90;;;;;;6160856;23;20084;-71
2022/12/28 03:49:37;;;;;;;8.40;2.45;;;4.10;99.90;;;;;;6160769;23;20005;-71
2022/12/28 03:52:06;;;;;;;9.40;3.92;;;4.10;99.90;;;;;;6160819;23;20001;-71
2022/12/28 03:54:34;;;;;;;8.40;2.42;;;4.10;99.90;;;;;;6161023;23;20001;-71
2022/12/28 03:57:01;;;;;;;6.10;2.08;;;4.10;99.90;;;;;;6160718;23;20109;-71
2022/12/28 03:59:28;;;;;;;5.45;2.17;;;4.10;99.90;;;;;;6160789;23;20026;-71
2022/12/28 04:01:55;;;;;;;6.85;3.10;;;4.20;99.90;;;;;;6160729;23;20002;-71
2022/12/28 04:04:23;;;;;;;12.20;3.28;;;4.20;99.90;;;;;;6159449;23;20002;-71
2022/12/28 04:06:50;;;;;;;4.65;2.40;;;4.20;99.90;;;;;;6159315;23;20394;-71
2022/12/28 04:09:17;;;;;;;8.20;3.50;;;4.20;99.90;;;;;;6159354;23;20029;-71
2022/12/28 04:11:44;;;;;;;5.78;2.00;;;4.20;99.90;;;;;;6160976;23;20005;-71
2022/12/28 04:14:11;;;;;;;4.65;1.55;;;4.20;99.90;;;;;;6161364;23;20001;-71
2022/12/28 04:16:39;;;;;;;4.60;2.40;;;4.30;99.90;;;;;;6159164;23;20009;-71
2022/12/28 04:19:06;;;;;;;7.45;3.15;;;4.30;99.90;;;;;;6160916;23;19997;-71
2022/12/28 04:21:33;;;;;;;8.48;2.95;;;4.30;99.90;;;;;;6159211;23;20280;-71
2022/12/28 04:24:01;;;;;;;4.47;2.25;;;4.30;99.90;;;;;;6160397;23;20080;-71
2022/12/28 04:26:28;;;;;;;9.38;2.60;;;4.40;99.90;;;;;;6160420;23;20014;-71
2022/12/28 04:29:00;;;;;;;9.18;3.50;;;4.40;99.90;;;;;;6160965;23;20005;-71
2022/12/28 04:31:29;;;;;;;3.53;2.17;;;4.40;99.90;;;;;;6160812;23;20005;-71
2022/12/28 04:34:00;;;;;;;7.22;3.45;;;4.40;99.90;;;;;;6160766;23;20005;-71
2022/12/28 04:36:27;;;;;;;7.00;2.45;;;4.40;99.90;;;;;;6158984;23;20099;-71
2022/12/28 04:38:58;;;;;;;7.43;2.47;;;4.50;99.90;;;;;;6134627;23;20005;-71
2022/12/28 04:41:26;;;;;;;6.35;3.85;;;4.40;99.90;;;;;;6160761;23;20052;-71
2022/12/28 04:43:57;;;;;;;9.50;2.38;;;4.40;99.90;;;;;;6160316;23;20016;-71
2022/12/28 04:46:24;;;;;;;8.43;3.33;;;4.40;99.90;;;;;;6160336;23;20248;-71
2022/12/28 04:48:51;;;;;;;6.80;3.15;;;4.40;99.90;;;;;;6134488;23;20012;-71
2022/12/28 04:51:25;;;;;;;5.32;3.00;;;4.40;99.90;;;;;;6160385;23;20029;-71
2022/12/28 04:53:52;;;;;;;7.40;3.03;;;4.40;99.90;;;;;;6158918;23;20286;-71
2022/12/28 04:56:21;;;;;;;7.80;3.22;;;4.30;99.90;;;;;;6160526;23;20010;-71
2022/12/28 04:58:53;;;;;;;7.70;2.95;;;4.40;99.90;;;;;;6160178;23;20375;-71
2022/12/28 05:01:21;;;;;;;3.95;2.38;;;4.40;99.90;;;;;;6160182;23;20024;-71
2022/12/28 05:03:49;;;;;;;7.47;3.33;;;4.40;99.90;;;;;;6158780;23;20052;-71
2022/12/28 05:06:18;;;;;;;13.48;4.00;;;4.40;99.90;;;;;;6160152;23;20081;-71
2022/12/28 05:08:46;;;;;;;7.75;3.55;;;4.40;99.90;;;;;;6160872;23;20076;-71
2022/12/28 05:11:17;;;;;;;4.35;2.33;;;4.40;99.90;;;;;;6159003;23;20068;-71
2022/12/28 05:13:45;;;;;;;7.18;3.08;;;4.40;99.90;;;;;;6160784;23;20005;-71
2022/12/28 05:16:18;;;;;;;6.90;3.20;;;4.40;99.90;;;;;;6160041;23;20089;-71
2022/12/28 05:18:45;;;;;;;8.23;3.35;;;4.40;99.90;;;;;;6160550;23;19997;-71
2022/12/28 05:21:15;;;;;;;5.25;2.28;;;4.50;99.90;;;;;;6160047;23;20085;-71
2022/12/28 05:23:43;;;;;;;6.22;3.05;;;4.50;99.90;;;;;;6160512;23;20029;-71
2022/12/28 05:26:17;;;;;;;6.82;3.33;;;4.50;99.90;;;;;;6159923;23;20382;-71
2022/12/28 05:28:44;;;;;;;7.20;3.03;;;4.50;99.90;;;;;;6160865;23;20056;-71
2022/12/28 05:31:14;;;;;;;8.77;3.00;;;4.50;99.90;;;;;;6160717;23;20385;-71
2022/12/28 05:33:42;;;;;;;5.80;3.08;;;4.50;99.90;;;;;;6160571;23;20076;-71
2022/12/28 05:36:13;;;;;;;5.15;2.13;;;4.50;99.90;;;;;;6158747;23;20067;-71
2022/12/28 05:38:41;;;;;;;2.92;1.60;;;4.50;99.90;;;;;;6159892;23;20383;-71
2022/12/28 05:41:24;;;;;;;5.50;2.53;;;4.50;99.90;;;;;;6160004;23;20077;-71
2022/12/28 05:43:52;;;;;;;5.60;3.55;;;4.50;99.90;;;;;;6159788;23;20330;-71
2022/12/28 05:46:23;;;;;;;7.82;3.05;;;4.50;99.90;;;;;;6160125;23;20001;-71
2022/12/28 05:48:51;;;;;;;9.82;2.75;;;4.50;99.90;;;;;;6159655;23;20032;-71
2022/12/28 05:51:22;;;;;;;4.03;2.22;;;4.50;99.90;;;;;;6159919;23;20012;-71
2022/12/28 05:53:49;;;;;;;11.73;3.25;;;4.60;99.90;;;;;;6160535;23;20307;-71
2022/12/28 05:56:19;;;;;;;7.78;2.95;;;4.60;99.90;;;;;;6158623;23;20101;-71
2022/12/28 05:58:54;;;;;;;5.85;2.90;;;4.60;99.90;;;;;;6160484;23;19998;-71
2022/12/28 06:01:23;;;;;;;5.43;2.85;;;4.60;99.90;;;;;;6159826;23;20359;-71
2022/12/28 06:03:59;;;;;;;6.03;2.50;;;4.60;99.90;;;;;;6160438;23;20005;-71
2022/12/28 06:06:27;;;;;;;7.88;4.20;;;4.60;99.90;;;;;;6159877;23;20032;-71
2022/12/28 06:08:54;;;;;;;7.40;3.63;;;4.60;99.90;;;;;;6159726;23;20077;-71
2022/12/28 06:11:25;;;;;;;6.47;3.25;;;4.60;99.90;;;;;;6158451;23;20409;-71
2022/12/28 06:13:53;;;;;;;5.75;2.90;;;4.60;99.90;;;;;;6158418;23;20005;-71
2022/12/28 06:16:29;;;;;;;8.30;3.28;;;4.60;99.90;;;;;;6159808;23;20001;-71
2022/12/28 06:18:57;;;;;;;6.63;3.25;;;4.70;99.90;;;;;;6158418;23;20013;-71
2022/12/28 06:21:30;;;;;;;6.80;2.05;;;4.70;99.90;;;;;;6159760;23;19998;-71
2022/12/28 06:23:58;;;;;;;5.15;2.65;;;4.70;99.90;;;;;;6159600;23;20252;-71
2022/12/28 06:26:27;;;;;;;5.82;3.05;;;4.70;99.90;;;;;;6159694;23;20032;-71
2022/12/28 06:28:55;;;;;;;5.57;3.38;;;4.80;99.90;;;;;;6158414;23;20387;-71
2022/12/28 06:31:27;;;;;;;5.40;2.88;;;4.80;99.90;;;;;;6158387;23;20024;-71
2022/12/28 06:33:57;;;;;;;8.68;3.30;;;4.80;99.90;;;;;;6158299;23;20005;-71
2022/12/28 06:36:30;;;;;;;4.72;2.45;;;4.80;99.90;;;;;;6158320;23;20005;-71
2022/12/28 06:38:59;;;;;;;4.25;2.17;;;4.80;99.90;;;;;;6158411;23;20028;-71
2022/12/28 06:41:28;;;;;;;6.07;2.90;;;4.80;99.90;;;;;;6160288;23;19998;-71
2022/12/28 06:43:59;;;;;;;7.60;3.58;;;4.80;99.90;;;;;;6160210;23;20029;-71
2022/12/28 06:46:28;;;;;;;4.07;1.92;;;4.80;99.90;;;;;;6161793;23;20009;-71
2022/12/28 06:48:56;;;;;;;6.15;3.20;;;4.90;99.90;;;;;;6162030;23;20076;-71
2022/12/28 06:51:25;;;;;;;5.00;2.03;;;4.90;99.90;;;;;;6161444;23;20010;-71
2022/12/28 06:53:54;;;;;;;5.60;2.67;;;4.90;99.90;;;;;;6161384;23;20367;-71
2022/12/28 06:56:27;;;;;;;6.75;2.45;;;5.00;99.90;;;;;;6161298;23;20363;-71
2022/12/28 06:58:55;;;;;;;10.27;3.97;;;5.00;99.90;;;;;;6161250;23;20005;-71
2022/12/28 07:01:29;;;;;;;12.20;3.72;;;5.00;99.90;;;;;;6161658;23;20009;-71
2022/12/28 07:03:57;;;;;;;7.13;3.40;;;5.00;99.90;;;;;;6160737;23;20012;-71
2022/12/28 07:06:26;;;;;;;7.15;2.92;;;5.00;99.90;;;;;;6161257;23;20073;-71
2022/12/28 07:09:06;;;;;;;6.30;2.40;;;5.10;99.90;;;;;;6161181;23;20064;-71
2022/12/28 07:11:36;;;;;;;5.20;2.40;;;5.10;99.90;;;;;;6161176;23;20028;-71
2022/12/28 07:14:04;;;;;;;4.45;2.40;;;5.10;99.90;;;;;;6160024;23;20015;-71
2022/12/28 07:16:31;;;;;;;5.68;2.00;;;5.10;99.90;;;;;;6161792;23;20002;-71
2022/12/28 07:19:00;;;;;;;4.82;2.47;;;5.10;99.90;;;;;;6161237;23;20002;-71
2022/12/28 07:21:33;;;;;;;3.97;1.90;;;5.20;99.90;;;;;;6161110;23;20402;-71
2022/12/28 07:24:00;;;;;;;5.80;2.28;;;5.20;99.90;;;;;;6161312;23;20051;-71
2022/12/28 07:26:30;;;;;;;2.40;1.40;;;5.30;99.90;;;;;;6161152;23;20081;-71
2022/12/28 07:28:59;;;;;;;4.68;2.30;;;5.30;99.90;;;;;;6161214;23;20009;-71
2022/12/28 07:31:32;;;;;;;5.80;1.90;;;5.30;99.90;;;;;;6162047;23;20243;-71
2022/12/28 07:34:00;;;;;;;3.55;1.85;;;5.30;99.90;;;;;;6161338;23;20005;-72
2022/12/28 07:36:31;;;;;;;4.30;1.73;;;5.40;99.90;;;;;;6160406;23;20028;-71
2022/12/28 07:38:59;;;;;;;5.30;1.80;;;5.40;99.90;;;;;;6161142;23;20275;-71
2022/12/28 07:41:33;;;;;;;4.80;2.00;;;5.50;99.90;;;;;;6160981;23;20421;-71
2022/12/28 07:44:01;;;;;;;4.63;1.90;;;5.50;99.90;;;;;;6159524;23;20093;-72
2022/12/28 07:46:32;;;;;;;4.05;1.92;;;5.50;99.90;;;;;;6159576;23;20010;-71
2022/12/28 07:49:01;;;;;;;5.88;1.90;;;5.60;99.90;;;;;;6160682;23;20020;-71
2022/12/28 07:51:33;;;;;;;4.72;2.40;;;5.60;99.90;;;;;;6161208;23;20375;-71
2022/12/28 07:54:02;;;;;;;11.48;2.38;;;5.60;99.90;;;;;;6158973;23;20334;-71
2022/12/28 07:56:31;;;;;;;4.35;1.90;;;5.70;99.90;;;;;;6160635;23;20055;-72
2022/12/28 07:59:01;;;;;;;4.82;2.28;;;5.70;99.90;;;;;;6161008;23;20004;-71
2022/12/28 08:01:31;;;;;;;3.83;1.85;;;5.70;99.90;;;;;;6160698;23;20005;-71
2022/12/28 08:04:02;;;;;;;7.60;2.25;;;5.70;99.90;;;;;;6159485;23;20009;-71
2022/12/28 08:06:33;;;;;;;4.38;2.25;;;5.80;99.90;;;;;;6161060;23;20001;-71
2022/12/28 08:09:01;;;;;;;5.68;2.47;;;5.80;99.90;;;;;;6160766;23;20005;-71
2022/12/28 08:11:32;;;;;;;4.28;2.05;;;5.80;99.90;;;;;;6159340;23;20009;-71
2022/12/28 08:14:00;;;;;;;3.33;1.73;;;5.80;99.90;;;;;;6159509;23;20033;-71
2022/12/28 08:16:32;;;;;;;6.43;2.70;;;5.80;99.90;;;;;;6159204;23;20037;-71
2022/12/28 08:19:00;;;;;;;6.90;2.95;;;5.90;99.90;;;;;;6159257;23;20013;-71
2022/12/28 08:21:37;;;;;;;4.68;2.55;;;5.90;99.90;;;;;;6160554;23;20002;-71
2022/12/28 08:24:05;;;;;;;5.10;2.78;;;5.90;99.90;;;;;;6160744;23;20018;-71
2022/12/28 08:26:36;;;;;;;3.97;2.03;;;5.90;99.90;;;;;;6160468;23;20330;-71
2022/12/28 08:29:07;;;;;;;4.38;2.45;;;5.90;99.90;;;;;;6161219;23;20010;-71
2022/12/28 08:31:40;;;;;;;21.45;3.55;;;5.90;99.90;;;;;;6160475;23;20308;-71
2022/12/28 08:34:13;;;;;;;9.02;4.60;;;6.00;99.90;;;;;;6160792;23;20001;-71
2022/12/28 08:36:41;;;;;;;5.75;2.85;;;6.00;99.90;;;;;;6161021;23;20012;-71
2022/12/28 08:39:09;;;;;;;7.93;4.40;;;6.00;99.90;;;;;;6160497;23;19998;-71
2022/12/28 08:41:36;;;;;;;14.85;6.05;;;6.00;99.90;;;;;;6160428;23;20269;-71
2022/12/28 08:44:03;;;;;;;13.02;5.65;;;6.00;99.90;;;;;;6159231;23;20044;-71
2022/12/28 08:46:33;;;;;;;16.67;7.30;;;6.00;99.90;;;;;;6160380;23;20013;-71
2022/12/28 08:49:00;;;;;;;10.95;4.63;;;6.00;99.90;;;;;;6160791;23;20009;-71
2022/12/28 08:51:35;;;;;;;12.90;5.68;;;6.10;99.90;;;;;;6160350;23;20085;-71
2022/12/28 08:54:03;;;;;;;5.53;2.05;;;6.10;99.90;;;;;;6160443;23;20009;-71
2022/12/28 08:56:34;;;;;;;3.05;2.00;;;6.10;99.90;;;;;;6160433;23;20016;-71
2022/12/28 08:59:02;;;;;;;4.82;1.85;;;6.20;99.90;;;;;;6160198;23;20378;-71
2022/12/28 09:01:35;;;;;;;4.45;1.95;;;6.30;99.90;;;;;;6160548;23;20013;-71
2022/12/28 09:04:02;;;;;;;5.88;1.45;;;6.30;99.90;;;;;;6158623;23;20006;-71
2022/12/28 09:06:37;;;;;;;3.15;1.10;;;6.40;99.90;;;;;;6158937;23;20113;-71
2022/12/28 09:09:10;;;;;;;2.42;1.45;;;6.40;99.90;;;;;;6158827;23;20387;-71
2022/12/28 09:11:39;;;;;;;3.13;1.55;;;6.50;99.90;;;;;;6160086;23;20328;-71
2022/12/28 09:14:09;;;;;;;7.07;1.48;;;6.50;99.90;;;;;;6160509;23;20333;-70
2022/12/28 09:16:38;;;;;;;4.80;1.08;;;6.60;99.90;;;;;;6158734;23;20279;-71
2022/12/28 09:19:08;;;;;;;1.13;0.60;;;6.60;99.90;;;;;;6160675;23;20002;-71
2022/12/28 09:21:37;;;;;;;1.33;0.63;;;6.70;99.90;;;;;;6160100;23;19997;-71
2022/12/28 09:24:05;;;;;;;4.60;0.70;;;6.80;99.90;;;;;;6159757;23;20001;-71
2022/12/28 09:26:36;;;;;;;1.40;0.65;;;6.90;99.90;;;;;;6160027;23;20013;-71
2022/12/28 09:29:07;;;;;;;0.75;0.50;;;7.00;99.90;;;;;;6160863;23;20076;-71
2022/12/28 09:31:35;;;;;;;1.00;0.60;;;7.10;99.90;;;;;;6159917;23;20374;-71
2022/12/28 09:34:05;;;;;;;1.80;0.55;;;7.20;99.90;;;;;;6159861;23;20017;-71
2022/12/28 09:36:38;;;;;;;1.48;0.60;;;7.20;99.90;;;;;;6159746;23;20016;-71
2022/12/28 09:39:15;;;;;;;2.20;0.80;;;7.30;99.90;;;;;;6160276;23;20001;-71
2022/12/28 09:41:54;;;;;;;1.23;0.55;;;7.30;99.90;;;;;;6160169;23;20023;-71
2022/12/28 09:44:41;;;;;;;1.20;0.50;;;7.30;99.90;;;;;;6160770;23;20025;-71
2022/12/28 09:47:27;;;;;;;2.55;0.90;;;7.40;99.90;;;;;;6159818;23;20006;-71
2022/12/28 09:50:16;;;;;;;2.25;1.02;;;7.50;99.90;;;;;;6160135;23;20002;-71
2022/12/28 09:52:53;;;;;;;1.52;0.60;;;7.60;99.90;;;;;;6160556;23;20052;-71
2022/12/28 09:55:20;;;;;;;1.35;0.77;;;7.60;99.90;;;;;;6160698;23;20389;-71
2022/12/28 09:57:54;;;;;;;0.85;0.40;;;7.60;99.90;;;;;;6159786;23;20009;-71
2022/12/28 10:00:27;;;;;;;1.52;0.68;;;7.70;99.90;;;;;;6158500;23;20006;-71
2022/12/28 10:03:11;;;;;;;1.20;0.60;;;7.80;99.90;;;;;;6159731;23;20005;-71
2022/12/28 10:05:39;;;;;;;1.40;0.35;;;7.80;99.90;;;;;;6160024;23;20268;-71
2022/12/28 10:08:16;;;;;;;3.80;0.57;;;7.80;99.90;;;;;;6158448;23;20379;-71
2022/12/28 10:10:44;;;;;;;1.08;0.50;;;7.90;99.90;;;;;;6160514;23;20002;-71
2022/12/28 10:13:23;;;;;;;0.73;0.40;;;7.90;99.90;;;;;;6159789;23;19997;-71
2022/12/28 10:15:51;;;;;;;1.20;0.40;;;7.90;99.90;;;;;;6160601;23;20001;-71
2022/12/28 10:18:25;;;;;;;0.68;0.32;;;7.90;99.90;;;;;;6160292;23;20012;-71
2022/12/28 10:20:54;;;;;;;1.00;0.40;;;7.80;99.90;;;;;;6162426;23;20029;-71
2022/12/28 10:23:30;;;;;;;1.75;0.43;;;7.80;99.90;;;;;;6161726;23;20397;-71
2022/12/28 10:26:00;;;;;;;1.02;0.50;;;7.80;99.90;;;;;;6161548;23;20024;-71
2022/12/28 10:28:41;;;;;;;1.50;0.40;;;7.80;99.90;;;;;;6161586;23;20013;-71
2022/12/28 10:31:11;;;;;;;1.60;0.47;;;7.70;99.90;;;;;;6160493;23;20009;-71
2022/12/28 10:33:53;;;;;;;1.27;0.63;;;7.70;99.90;;;;;;6161641;23;20005;-71
2022/12/28 10:36:21;;;;;;;0.77;0.40;;;7.70;99.90;;;;;;6161768;23;20016;-71
2022/12/28 10:38:54;;;;;;;0.90;0.43;;;7.70;99.90;;;;;;6160468;23;20028;-71
2022/12/28 10:41:32;;;;;;;1.08;0.60;;;7.70;99.90;;;;;;6163352;23;20002;-71
2022/12/28 10:44:12;;;;;;;1.70;0.68;;;7.70;99.90;;;;;;6161545;23;20008;-71
2022/12/28 10:46:49;;;;;;;1.77;0.73;;;7.60;99.90;;;;;;6161850;23;20056;-71
2022/12/28 10:49:17;;;;;;;1.20;0.70;;;7.60;99.90;;;;;;6161588;23;20028;-71
2022/12/28 10:52:17;;;;;;;1.63;0.68;;;7.60;99.90;;;;;;6160116;23;20009;-71
2022/12/28 10:54:45;;;;;;;2.33;0.43;;;7.60;99.90;;;;;;6161479;23;20080;-71
2022/12/28 10:57:28;;;;;;;2.45;0.70;;;7.60;99.90;;;;;;6159969;23;20005;-71
2022/12/28 11:00:15;;;;;;;1.30;0.70;;;7.60;99.90;;;;;;6161525;23;19998;-71
2022/12/28 11:02:43;;;;;;;1.35;0.70;;;7.60;99.90;;;;;;6161119;23;20002;-71
2022/12/28 11:05:20;;;;;;;4.35;0.75;;;7.60;99.90;;;;;;6161335;23;20002;-71
2022/12/28 11:07:48;;;;;;;1.13;0.43;;;7.60;99.90;;;;;;6161666;23;20009;-71
2022/12/28 11:10:29;;;;;;;1.23;0.47;;;7.60;99.90;;;;;;6161454;23;20001;-71
2022/12/28 11:12:59;;;;;;;0.80;0.47;;;7.70;99.90;;;;;;6161161;23;20325;-71
2022/12/28 11:15:32;;;;;;;1.65;0.63;;;7.70;99.90;;;;;;6161254;23;20001;-71
2022/12/28 11:18:27;;;;;;;1.88;0.52;;;7.70;99.90;;;;;;6162174;23;20021;-71
2022/12/28 11:20:55;;;;;;;0.98;0.40;;;7.70;99.90;;;;;;6159995;23;20040;-71
2022/12/28 11:23:30;;;;;;;1.25;0.60;;;7.70;99.90;;;;;;6162482;23;20037;-71
2022/12/28 11:25:59;;;;;;;2.17;0.50;;;7.70;99.90;;;;;;6160967;23;20046;-71
2022/12/28 11:28:28;;;;;;;0.50;0.30;;;7.80;99.90;;;;;;6162627;23;20012;-71
2022/12/28 11:30:57;;;;;;;2.35;0.80;;;7.80;99.90;;;;;;6163738;23;20021;-71
2022/12/28 11:33:38;;;;;;;4.63;0.70;;;7.90;99.90;;;;;;6160984;23;20017;-72
2022/12/28 11:36:06;;;;;;;1.48;0.50;;;7.90;99.90;;;;;;6160867;23;20334;-71
2022/12/28 11:38:38;;;;;;;2.15;0.60;;;7.90;99.90;;;;;;6161177;23;19998;-71
2022/12/28 11:41:09;;;;;;;1.30;0.50;;;7.90;99.90;;;;;;6160901;23;20009;-71
2022/12/28 11:43:48;;;;;;;1.25;0.70;;;7.90;99.90;;;;;;6160995;23;20008;-71
2022/12/28 11:46:22;;;;;;;1.05;0.45;;;7.90;99.90;;;;;;6160922;23;20001;-71
2022/12/28 11:49:21;;;;;;;0.22;0.20;;;8.00;99.90;;;;;;6161716;23;20001;-71
2022/12/28 11:52:14;;;;;;;0.93;0.55;;;8.00;99.90;;;;;;6161184;23;20028;-71
2022/12/28 11:54:58;;;;;;;3.10;0.47;;;8.10;99.90;;;;;;6160746;23;20097;-71
2022/12/28 11:57:44;;;;;;;1.10;0.60;;;8.10;99.90;;;;;;6160972;23;20037;-71
2022/12/28 12:00:26;;;;;;;1.20;0.40;;;8.10;99.90;;;;;;6161005;23;20005;-71
2022/12/28 12:02:59;;;;;;;2.50;0.70;;;8.10;99.90;;;;;;6159373;23;20029;-71
2022/12/28 12:05:36;;;;;;;1.38;0.60;;;8.10;99.90;;;;;;6160569;23;20002;-71
2022/12/28 12:08:16;;;;;;;1.10;0.70;;;8.10;99.90;;;;;;6160978;23;20076;-71
2022/12/28 12:10:44;;;;;;;1.65;1.23;;;8.10;99.90;;;;;;6161549;23;20001;-71
2022/12/28 12:13:39;;;;;;;1.08;0.30;;;8.10;99.90;;;;;;6159341;23;20037;-71
2022/12/28 12:16:19;;;;;;;1.52;0.40;;;8.10;99.90;;;;;;6149132;23;20374;-71
2022/12/28 12:18:53;;;;;;;0.73;0.40;;;8.10;99.90;;;;;;6160776;23;20306;-71
2022/12/28 12:21:32;;;;;;;0.60;0.30;;;8.20;99.90;;;;;;6160495;23;20009;-71
2022/12/28 12:24:53;;;;;;;0.88;0.50;;;8.20;99.90;;;;;;6161026;23;20025;-71
2022/12/28 12:27:35;;;;;;;2.67;0.40;;;8.20;99.90;;;;;;6097939;23;20326;-72
2022/12/28 12:30:13;;;;;;;0.80;0.30;;;8.30;99.90;;;;;;6161329;23;20002;-72
2022/12/28 12:32:52;;;;;;;1.20;0.50;;;8.30;99.90;;;;;;6160449;23;20040;-71
2022/12/28 12:35:25;;;;;;;0.73;0.38;;;8.30;99.90;;;;;;6160421;23;20421;-72
2022/12/28 12:38:06;;;;;;;1.33;0.30;;;8.40;99.90;;;;;;6160313;23;20036;-72
2022/12/28 12:40:58;;;;;;;1.55;0.45;;;8.40;99.90;;;;;;6160231;23;20029;-72
2022/12/28 12:43:42;;;;;;;0.68;0.40;;;8.40;99.90;;;;;;6160294;23;20422;-71
2022/12/28 12:46:45;;;;;;;1.67;0.50;;;8.50;99.90;;;;;;6160410;23;20373;-72
2022/12/28 12:49:52;;;;;;;0.68;0.40;;;8.60;99.90;;;;;;6158869;23;20020;-72
2022/12/28 12:52:44;;;;;;;1.17;0.53;;;8.60;99.90;;;;;;6160366;23;20001;-71
2022/12/28 12:55:46;;;;;;;1.75;0.40;;;8.60;99.90;;;;;;6160622;23;20008;-71
2022/12/28 12:58:43;;;;;;;1.13;0.43;;;8.60;99.90;;;;;;6160161;23;20264;-71
2022/12/28 13:01:27;;;;;;;2.83;0.60;;;8.60;99.90;;;;;;6158972;23;20006;-71
2022/12/28 13:04:07;;;;;;;0.88;0.40;;;8.70;99.90;;;;;;6160968;23;20344;-71
2022/12/28 13:06:38;;;;;;;1.67;0.63;;;8.70;99.90;;;;;;6160060;23;20006;-71
2022/12/28 13:09:12;;;;;;;1.10;0.40;;;8.70;99.90;;;;;;6160104;23;20001;-71
2022/12/28 13:11:40;;;;;;;2.15;0.40;;;8.70;99.90;;;;;;6159992;23;20056;-71
2022/12/28 13:14:21;;;;;;;1.65;0.43;;;8.70;99.90;;;;;;6160342;23;20084;-71
2022/12/28 13:16:52;;;;;;;1.02;0.43;;;8.70;99.90;;;;;;6159928;23;20009;-71
2022/12/28 13:19:25;;;;;;;3.17;0.63;;;8.80;99.90;;;;;;6160111;23;20367;-71
2022/12/28 13:21:54;;;;;;;3.65;0.68;;;8.80;99.90;;;;;;6160693;23;20001;-71
2022/12/28 13:24:27;;;;;;;1.83;0.68;;;8.80;99.90;;;;;;6161585;23;20121;-71
2022/12/28 13:26:57;;;;;;;1.67;0.60;;;8.80;99.90;;;;;;6158627;23;20002;-71
2022/12/28 13:29:32;;;;;;;2.75;1.30;;;8.90;99.90;;;;;;6158665;23;20009;-71
2022/12/28 13:31:59;;;;;;;3.95;1.85;;;8.90;99.90;;;;;;6160606;23;19998;-71
2022/12/28 13:34:36;;;;;;;3.50;1.40;;;8.90;99.90;;;;;;6159996;23;20021;-71
2022/12/28 13:37:15;;;;;;;7.70;3.00;;;8.90;99.90;;;;;;6159733;23;20036;-71
2022/12/28 13:39:43;;;;;;;3.17;0.70;;;8.90;99.90;;;;;;6160268;23;20445;-71
2022/12/28 13:42:18;;;;;;;4.45;1.75;;;8.90;99.90;;;;;;6159737;23;20080;-71
2022/12/28 13:45:02;;;;;;;16.88;6.07;;;8.90;99.90;;;;;;6159990;23;20028;-71
2022/12/28 13:47:39;;;;;;;9.88;3.42;;;8.90;99.90;;;;;;6159958;23;20006;-71
2022/12/28 13:50:07;;;;;;;;;;;8.90;99.90;;;;;;6160276;23;20445;-71
2022/12/28 13:52:38;;;;;;;2.38;0.80;;;8.90;99.90;;;;;;6160086;23;19907;-71